createdAt,value
2023-03-08T00:02:04.286Z,97316.03
2023-03-08T00:05:06.524Z,97310.00
2023-03-08T00:08:08.077Z,97316.88
2023-03-08T00:11:11.512Z,97322.00
2023-03-08T00:14:13.033Z,97315.09
2023-03-08T00:17:14.646Z,97310.84
2023-03-08T00:20:16.135Z,97291.91
2023-03-08T00:23:17.616Z,97295.31
2023-03-08T00:26:19.091Z,97286.66
2023-03-08T00:29:20.616Z,97289.25
2023-03-08T00:32:22.191Z,97281.50
2023-03-08T00:35:23.780Z,97291.81
2023-03-08T00:38:25.374Z,97288.38
2023-03-08T00:41:27.077Z,97280.59
2023-03-08T00:44:28.557Z,97271.13
2023-03-08T00:47:30.039Z,97271.16
2023-03-08T00:50:31.780Z,97279.69
2023-03-08T00:53:33.516Z,97282.28
2023-03-08T00:56:35.017Z,97282.22
2023-03-08T00:59:36.496Z,97275.31
2023-03-08T01:02:41.216Z,97285.66
2023-03-08T01:05:47.559Z,97286.47
2023-03-08T01:08:49.058Z,97276.00
2023-03-08T01:11:50.540Z,97277.69
2023-03-08T01:14:52.765Z,97264.75
2023-03-08T01:17:54.251Z,97243.13
2023-03-08T01:20:59.863Z,97228.41
2023-03-08T01:24:01.412Z,97224.97
2023-03-08T01:27:02.926Z,97223.34
2023-03-08T01:30:05.063Z,97211.31
2023-03-08T01:33:06.564Z,97223.44
2023-03-08T01:36:09.394Z,97215.78
2023-03-08T01:39:10.897Z,97203.84
2023-03-08T01:42:12.457Z,97206.25
2023-03-08T01:45:51.603Z,97196.78
2023-03-08T01:48:54.538Z,97187.09
2023-03-08T01:52:06.898Z,97193.56
2023-03-08T01:55:09.941Z,97185.69
2023-03-08T01:58:11.538Z,97185.56
2023-03-08T02:01:13.103Z,97183.09
2023-03-08T02:04:14.591Z,97177.91
2023-03-08T02:07:16.120Z,97174.47
2023-03-08T02:10:17.616Z,97175.38
2023-03-08T02:13:19.471Z,97172.88
2023-03-08T02:16:21.063Z,97163.38
2023-03-08T02:19:26.449Z,97161.53
2023-03-08T02:22:27.952Z,97153.84
2023-03-08T02:25:29.514Z,97149.53
2023-03-08T02:28:31.063Z,97137.56
2023-03-08T02:31:32.554Z,97139.50
2023-03-08T02:34:34.559Z,97125.84
2023-03-08T02:37:36.041Z,97112.88
2023-03-08T02:40:38.158Z,97103.47
2023-03-08T02:43:39.656Z,97089.53
2023-03-08T02:46:41.137Z,97079.19
2023-03-08T02:49:42.615Z,97071.59
2023-03-08T02:52:44.102Z,97072.47
2023-03-08T02:55:45.568Z,97059.47
2023-03-08T02:58:47.038Z,97054.25
2023-03-08T03:01:48.595Z,97045.66
2023-03-08T03:04:50.103Z,97025.19
2023-03-08T03:07:51.852Z,97022.69
2023-03-08T03:10:53.368Z,97019.34
2023-03-08T03:13:56.526Z,97002.25
2023-03-08T03:16:58.502Z,96999.63
2023-03-08T03:20:00.095Z,96999.72
2023-03-08T03:23:01.623Z,97001.50
2023-03-08T03:26:10.873Z,97001.56
2023-03-08T03:29:12.380Z,96992.16
2023-03-08T03:32:13.966Z,96990.31
2023-03-08T03:35:15.573Z,96990.44
2023-03-08T03:38:18.003Z,96987.81
2023-03-08T03:41:23.024Z,96983.31
2023-03-08T03:44:24.534Z,96989.34
2023-03-08T03:47:26.038Z,96981.91
2023-03-08T03:50:27.537Z,96988.00
2023-03-08T03:53:29.534Z,96977.75
2023-03-08T03:56:31.002Z,96978.75
2023-03-08T03:59:33.975Z,96985.66
2023-03-08T04:02:35.536Z,96982.28
2023-03-08T04:05:37.135Z,96974.50
2023-03-08T04:08:44.483Z,96975.38
2023-03-08T04:11:45.978Z,96969.34
2023-03-08T04:14:47.510Z,96973.63
2023-03-08T04:17:49.020Z,96947.00
2023-03-08T04:20:50.540Z,96948.72
2023-03-08T04:23:52.284Z,96945.25
2023-03-08T04:26:53.821Z,96933.22
2023-03-08T04:29:55.567Z,96933.16
2023-03-08T04:32:57.073Z,96934.06
2023-03-08T04:35:58.576Z,96922.03
2023-03-08T04:39:00.142Z,96925.41
2023-03-08T04:42:01.714Z,96925.38
2023-03-08T04:45:03.489Z,96913.28
2023-03-08T04:48:05.008Z,96923.53
2023-03-08T04:51:07.323Z,96912.34
2023-03-08T04:54:08.864Z,96900.13
2023-03-08T04:57:10.351Z,96902.78
2023-03-08T05:00:12.525Z,96898.44
2023-03-08T05:03:14.105Z,96879.53
2023-03-08T05:06:15.581Z,96883.78
2023-03-08T05:09:17.062Z,96893.22
2023-03-08T05:12:18.582Z,96905.09
2023-03-08T05:15:20.118Z,96902.41
2023-03-08T05:18:21.659Z,96896.34
2023-03-08T05:21:24.273Z,96889.47
2023-03-08T05:24:27.251Z,96886.78
2023-03-08T05:27:32.607Z,96892.00
2023-03-08T05:30:34.121Z,96879.16
2023-03-08T05:33:35.705Z,96878.34
2023-03-08T05:36:37.512Z,96882.75
2023-03-08T05:39:39.010Z,96886.28
2023-03-08T05:42:40.549Z,96888.91
2023-03-08T05:45:42.242Z,96872.66
2023-03-08T05:48:43.876Z,96863.25
2023-03-08T05:51:45.378Z,96860.78
2023-03-08T05:54:46.864Z,96858.19
2023-03-08T05:57:48.363Z,96855.72
2023-03-08T06:00:49.831Z,96848.03
2023-03-08T06:03:53.194Z,96843.75
2023-03-08T06:06:54.694Z,96844.66
2023-03-08T06:09:56.337Z,96826.63
2023-03-08T06:12:57.914Z,96825.78
2023-03-08T06:16:00.037Z,96829.19
2023-03-08T06:19:02.095Z,96807.69
2023-03-08T06:22:03.638Z,96801.63
2023-03-08T06:25:05.674Z,96786.16
2023-03-08T06:28:07.140Z,96781.06
2023-03-08T06:31:10.487Z,96766.41
2023-03-08T06:34:12.687Z,96764.69
2023-03-08T06:37:14.518Z,96751.81
2023-03-08T06:40:16.432Z,96733.75
2023-03-08T06:43:18.184Z,96729.50
2023-03-08T06:46:20.299Z,96720.03
2023-03-08T06:49:22.266Z,96707.19
2023-03-08T06:52:23.765Z,96697.69
2023-03-08T06:55:25.241Z,96699.38
2023-03-08T06:58:26.775Z,96688.25
2023-03-08T07:01:28.335Z,96683.03
2023-03-08T07:04:29.920Z,96682.13
2023-03-08T07:07:31.665Z,96671.78
2023-03-08T07:10:33.214Z,96675.19
2023-03-08T07:13:35.131Z,96679.56
2023-03-08T07:16:36.672Z,96655.50
2023-03-08T07:19:38.215Z,96652.00
2023-03-08T07:22:41.986Z,96627.91
2023-03-08T07:25:43.493Z,96609.88
2023-03-08T07:28:48.368Z,96601.25
2023-03-08T07:31:49.851Z,96595.16
2023-03-08T07:34:51.355Z,96584.84
2023-03-08T07:37:52.860Z,96588.97
2023-03-08T07:40:56.060Z,96582.91
2023-03-08T07:43:57.568Z,96566.41
2023-03-08T07:46:59.067Z,96574.13
2023-03-08T07:50:00.625Z,96558.53
2023-03-08T07:53:02.216Z,96582.50
2023-03-08T07:56:03.912Z,96565.28
2023-03-08T07:59:05.384Z,96567.75
2023-03-08T08:02:06.870Z,96557.63
2023-03-08T08:05:08.618Z,96556.72
2023-03-08T08:08:13.693Z,96553.09
2023-03-08T08:11:16.377Z,96566.88
2023-03-08T08:14:17.719Z,96558.13
2023-03-08T08:17:19.957Z,96560.66
2023-03-08T08:20:21.445Z,96569.19
2023-03-08T08:23:22.927Z,96562.28
2023-03-08T08:26:24.488Z,96552.81
2023-03-08T08:29:25.964Z,96547.56
2023-03-08T08:32:27.574Z,96542.22
2023-03-08T08:35:42.457Z,96543.84
2023-03-08T08:38:46.217Z,96533.34
2023-03-08T08:41:49.644Z,96536.72
2023-03-08T08:44:52.879Z,96537.22
2023-03-08T08:47:54.346Z,96538.84
2023-03-08T08:50:55.829Z,96552.44
2023-03-08T08:53:57.335Z,96572.91
2023-03-08T08:56:59.123Z,96566.47
2023-03-08T09:00:00.621Z,96563.19
2023-03-08T09:03:02.248Z,96560.34
2023-03-08T09:06:03.848Z,96565.41
2023-03-08T09:09:05.841Z,96568.00
2023-03-08T09:12:07.771Z,96577.38
2023-03-08T09:15:11.295Z,96559.16
2023-03-08T09:18:12.791Z,96571.31
2023-03-08T09:21:14.484Z,96554.09
2023-03-08T09:24:17.061Z,96552.69
2023-03-08T09:27:18.450Z,96553.19
2023-03-08T09:30:19.953Z,96546.34
2023-03-08T09:33:21.494Z,96560.69
2023-03-08T09:36:22.978Z,96567.38
2023-03-08T09:39:24.475Z,96550.75
2023-03-08T09:42:27.660Z,96557.84
2023-03-08T09:45:29.181Z,96571.31
2023-03-08T09:48:30.795Z,96583.53
2023-03-08T09:51:35.505Z,96555.66
2023-03-08T09:54:38.361Z,96574.47
2023-03-08T09:57:44.528Z,96566.31
2023-03-08T10:00:46.810Z,96573.22
2023-03-08T10:04:07.788Z,96572.16
2023-03-08T10:07:30.915Z,96560.09
2023-03-08T10:10:42.878Z,96559.84
2023-03-08T10:13:48.274Z,96549.88
2023-03-08T10:16:52.283Z,96549.28
2023-03-08T10:20:01.650Z,96549.34
2023-03-08T10:23:16.945Z,96545.69
2023-03-08T10:26:19.273Z,96551.53
2023-03-08T10:29:21.580Z,96535.75
2023-03-08T10:32:23.296Z,96539.13
2023-03-08T10:35:39.643Z,96547.28
2023-03-08T10:38:41.186Z,96543.03
2023-03-08T10:41:45.272Z,96525.50
2023-03-08T10:45:01.620Z,96523.72
2023-03-08T10:48:04.707Z,96525.28
2023-03-08T10:51:07.243Z,96532.06
2023-03-08T10:54:10.255Z,96532.22
2023-03-08T10:57:11.978Z,96514.38
2023-03-08T11:00:19.435Z,96525.19
2023-03-08T11:03:22.022Z,96532.78
2023-03-08T11:06:24.390Z,96533.13
2023-03-08T11:09:30.367Z,96531.03
2023-03-08T11:12:31.890Z,96538.63
2023-03-08T11:15:33.516Z,96549.19
2023-03-08T11:18:54.180Z,96547.94
2023-03-08T11:22:07.819Z,96544.38
2023-03-08T11:25:09.219Z,96556.97
2023-03-08T11:28:37.104Z,96545.59
2023-03-08T11:31:55.132Z,96553.47
2023-03-08T11:35:03.983Z,96557.84
2023-03-08T11:38:21.646Z,96550.16
2023-03-08T11:41:38.087Z,96557.56
2023-03-08T11:44:49.046Z,96550.41
2023-03-08T11:47:56.511Z,96552.63
2023-03-08T11:51:10.819Z,96559.63
2023-03-08T11:54:43.208Z,96554.56
2023-03-08T11:57:45.563Z,96564.09
2023-03-08T12:00:47.248Z,96549.56
2023-03-08T12:03:52.651Z,96554.94
2023-03-08T12:06:54.977Z,96561.88
2023-03-08T12:10:01.289Z,96570.31
2023-03-08T12:13:12.510Z,96566.34
2023-03-08T12:16:38.524Z,96551.38
2023-03-08T12:19:44.727Z,96560.88
2023-03-08T12:22:48.564Z,96545.94
2023-03-08T12:25:53.310Z,96546.63
2023-03-08T12:28:58.201Z,96554.50
2023-03-08T12:31:59.798Z,96548.44
2023-03-08T12:35:06.821Z,96552.38
2023-03-08T12:38:17.417Z,96536.25
2023-03-08T12:41:29.355Z,96538.66
2023-03-08T12:44:31.047Z,96537.63
2023-03-08T12:47:32.574Z,96544.47
2023-03-08T12:50:45.234Z,96538.16
2023-03-08T12:53:49.784Z,96534.38
2023-03-08T12:56:52.358Z,96541.28
2023-03-08T13:00:01.582Z,96545.31
2023-03-08T13:03:13.180Z,96548.00
2023-03-08T13:06:35.978Z,96532.91
2023-03-08T13:09:44.743Z,96536.38
2023-03-08T13:12:52.231Z,96530.81
2023-03-08T13:16:24.600Z,96538.41
2023-03-08T13:19:30.232Z,96540.34
2023-03-08T13:22:54.644Z,96520.38
2023-03-08T13:26:47.551Z,96505.31
2023-03-08T13:29:51.164Z,96505.00
2023-03-08T13:32:52.680Z,96493.50
2023-03-08T13:36:27.217Z,96500.75
2023-03-08T13:39:30.118Z,96506.47
2023-03-08T13:42:31.663Z,96501.84
2023-03-08T13:45:33.132Z,96494.75
2023-03-08T13:48:35.427Z,96509.16
2023-03-08T13:51:36.819Z,96498.16
2023-03-08T13:54:41.519Z,96477.97
2023-03-08T13:57:43.313Z,96452.94
2023-03-08T14:00:45.715Z,96445.13
2023-03-08T14:03:47.235Z,96431.44
2023-03-08T14:06:50.425Z,96424.25
2023-03-08T14:09:51.982Z,96409.66
2023-03-08T14:12:53.877Z,96406.06
2023-03-08T14:15:57.777Z,96410.34
2023-03-08T14:19:00.527Z,96419.66
2023-03-08T14:22:04.146Z,96419.81
2023-03-08T14:25:06.315Z,96426.47
2023-03-08T14:28:35.129Z,96423.03
2023-03-08T14:31:39.016Z,96420.34
2023-03-08T14:34:44.774Z,96428.19
2023-03-08T14:37:46.978Z,96436.16
2023-03-08T14:40:51.248Z,96435.16
2023-03-08T14:43:52.749Z,96439.38
2023-03-08T14:47:00.099Z,96423.69
2023-03-08T14:50:18.285Z,96434.16
2023-03-08T14:53:29.344Z,96437.69
2023-03-08T14:56:30.855Z,96437.75
2023-03-08T14:59:33.748Z,96430.94
2023-03-08T15:02:36.208Z,96422.31
2023-03-08T15:05:39.830Z,96418.97
2023-03-08T15:08:41.333Z,96405.69
2023-03-08T15:11:43.776Z,96413.63
2023-03-08T15:14:45.382Z,96405.72
2023-03-08T15:17:47.398Z,96403.72
2023-03-08T15:20:49.447Z,96396.63
2023-03-08T15:23:51.055Z,96408.63
2023-03-08T15:26:52.769Z,96397.72
2023-03-08T15:29:54.221Z,96394.44
2023-03-08T15:32:57.939Z,96393.84
2023-03-08T15:36:00.895Z,96384.81
2023-03-08T15:39:04.531Z,96393.78
2023-03-08T15:42:06.222Z,96392.84
2023-03-08T15:45:08.561Z,96397.38
2023-03-08T15:48:12.277Z,96377.75
2023-03-08T15:51:19.306Z,96376.00
2023-03-08T15:54:20.971Z,96376.84
2023-03-08T15:57:22.452Z,96374.84
2023-03-08T16:00:24.674Z,96381.44
2023-03-08T16:03:30.802Z,96387.38
2023-03-08T16:06:32.821Z,96395.50
2023-03-08T16:09:34.789Z,96406.78
2023-03-08T16:12:36.263Z,96396.47
2023-03-08T16:15:40.848Z,96378.66
2023-03-08T16:18:44.012Z,96388.59
2023-03-08T16:21:45.497Z,96380.81
2023-03-08T16:24:47.081Z,96375.44
2023-03-08T16:27:48.722Z,96368.78
2023-03-08T16:30:50.323Z,96366.38
2023-03-08T16:33:51.843Z,96362.91
2023-03-08T16:36:53.416Z,96373.22
2023-03-08T16:39:55.211Z,96382.75
2023-03-08T16:42:57.182Z,96378.69
2023-03-08T16:45:59.859Z,96377.44
2023-03-08T16:49:01.360Z,96382.75
2023-03-08T16:52:03.015Z,96373.16
2023-03-08T16:55:05.183Z,96387.84
2023-03-08T16:58:06.701Z,96390.66
2023-03-08T17:01:12.568Z,96409.16
2023-03-08T17:04:14.349Z,96400.78
2023-03-08T17:07:16.438Z,96411.44
2023-03-08T17:10:17.926Z,96397.75
2023-03-08T17:13:19.541Z,96417.03
2023-03-08T17:16:23.238Z,96401.72
2023-03-08T17:19:27.408Z,96397.38
2023-03-08T17:22:28.894Z,96405.91
2023-03-08T17:25:30.377Z,96400.72
2023-03-08T17:28:32.028Z,96409.13
2023-03-08T17:31:33.681Z,96415.69
2023-03-08T17:34:35.282Z,96399.22
2023-03-08T17:37:41.569Z,96413.31
2023-03-08T17:40:44.208Z,96413.28
2023-03-08T17:43:45.780Z,96430.94
2023-03-08T17:46:47.337Z,96408.97
2023-03-08T17:49:49.772Z,96412.69
2023-03-08T17:52:51.285Z,96413.19
2023-03-08T17:55:52.746Z,96395.00
2023-03-08T17:58:54.994Z,96403.19
2023-03-08T18:01:56.394Z,96419.16
2023-03-08T18:04:57.871Z,96438.22
2023-03-08T18:07:59.402Z,96428.44
2023-03-08T18:11:00.964Z,96425.03
2023-03-08T18:14:02.505Z,96428.00
2023-03-08T18:17:04.565Z,96432.88
2023-03-08T18:20:06.999Z,96416.97
2023-03-08T18:23:08.480Z,96445.91
2023-03-08T18:26:11.459Z,96417.94
2023-03-08T18:29:13.093Z,96414.41
2023-03-08T18:32:14.660Z,96403.25
2023-03-08T18:35:19.246Z,96408.97
2023-03-08T18:38:20.782Z,96413.88
2023-03-08T18:41:25.484Z,96418.13
2023-03-08T18:44:27.161Z,96408.66
2023-03-08T18:47:28.685Z,96423.81
2023-03-08T18:50:30.183Z,96402.38
2023-03-08T18:53:31.754Z,96391.75
2023-03-08T18:56:33.243Z,96374.03
2023-03-08T18:59:35.062Z,96376.59
2023-03-08T19:02:36.656Z,96384.47
2023-03-08T19:05:38.140Z,96382.25
2023-03-08T19:08:39.937Z,96390.22
2023-03-08T19:11:41.884Z,96359.66
2023-03-08T19:14:43.617Z,96371.63
2023-03-08T19:17:45.400Z,96369.53
2023-03-08T19:20:46.917Z,96367.84
2023-03-08T19:23:48.626Z,96370.28
2023-03-08T19:26:51.392Z,96346.88
2023-03-08T19:29:53.013Z,96359.91
2023-03-08T19:32:55.694Z,96353.78
2023-03-08T19:35:57.310Z,96347.53
2023-03-08T19:38:59.028Z,96345.69
2023-03-08T19:42:05.788Z,96346.38
2023-03-08T19:45:07.980Z,96358.50
2023-03-08T19:48:09.461Z,96351.59
2023-03-08T19:51:15.197Z,96332.94
2023-03-08T19:54:17.157Z,96357.41
2023-03-08T19:57:18.734Z,96340.03
2023-03-08T20:00:20.511Z,96353.44
2023-03-08T20:03:22.016Z,96364.53
2023-03-08T20:06:34.427Z,96354.47
2023-03-08T20:09:35.999Z,96359.81
2023-03-08T20:12:37.485Z,96359.94
2023-03-08T20:15:39.023Z,96348.63
2023-03-08T20:18:40.632Z,96358.13
2023-03-08T20:21:42.147Z,96364.81
2023-03-08T20:24:43.627Z,96359.44
2023-03-08T20:27:45.136Z,96352.25
2023-03-08T20:30:47.837Z,96366.78
2023-03-08T20:33:51.743Z,96351.91
2023-03-08T20:36:53.218Z,96345.00
2023-03-08T20:39:54.793Z,96331.41
2023-03-08T20:42:57.830Z,96334.03
2023-03-08T20:46:01.581Z,96322.47
2023-03-08T20:49:03.135Z,96321.97
2023-03-08T20:52:04.757Z,96335.59
2023-03-08T20:55:06.452Z,96344.53
2023-03-08T20:58:08.017Z,96321.16
2023-03-08T21:01:16.596Z,96334.03
2023-03-08T21:04:18.091Z,96333.84
2023-03-08T21:07:19.649Z,96328.53
2023-03-08T21:10:21.340Z,96319.31
2023-03-08T21:13:22.854Z,96308.97
2023-03-08T21:16:24.924Z,96306.88
2023-03-08T21:19:26.458Z,96313.63
2023-03-08T21:22:28.064Z,96323.38
2023-03-08T21:25:29.692Z,96327.28
2023-03-08T21:28:31.200Z,96306.59
2023-03-08T21:31:33.949Z,96313.97
2023-03-08T21:34:35.425Z,96332.75
2023-03-08T21:37:36.892Z,96331.78
2023-03-08T21:40:39.292Z,96323.34
2023-03-08T21:43:40.786Z,96341.66
2023-03-08T21:46:42.468Z,96348.94
2023-03-08T21:49:43.977Z,96349.50
2023-03-08T21:52:45.442Z,96350.41
2023-03-08T21:55:46.926Z,96336.34
2023-03-08T21:58:48.404Z,96350.59
2023-03-08T22:01:51.025Z,96329.13
2023-03-08T22:04:52.545Z,96311.00
2023-03-08T22:07:54.081Z,96300.06
2023-03-08T22:10:55.629Z,96312.06
2023-03-08T22:13:58.710Z,96306.69
2023-03-08T22:17:00.642Z,96305.09
2023-03-08T22:20:02.152Z,96270.50
2023-03-08T22:23:03.658Z,96218.81
2023-03-08T22:26:08.769Z,96251.81
2023-03-08T22:29:10.295Z,96237.59
2023-03-08T22:32:11.850Z,96234.31
2023-03-08T22:35:13.334Z,96228.06
2023-03-08T22:38:14.807Z,96227.69
2023-03-08T22:41:24.485Z,96227.31
2023-03-08T22:44:26.097Z,96238.78
2023-03-08T22:47:27.615Z,96220.75
2023-03-08T22:50:29.159Z,96232.09
2023-03-08T22:53:30.690Z,96235.41
2023-03-08T22:56:33.328Z,96204.91
2023-03-08T22:59:34.790Z,96185.84
2023-03-08T23:02:36.290Z,96169.47
2023-03-08T23:05:37.821Z,96148.78
2023-03-08T23:08:39.430Z,96145.56
2023-03-08T23:11:41.156Z,96124.47
2023-03-08T23:14:44.971Z,96132.75
2023-03-08T23:17:46.745Z,96121.88
2023-03-08T23:20:48.241Z,96137.03
2023-03-08T23:23:49.951Z,96124.63
2023-03-08T23:26:51.517Z,96099.44
2023-03-08T23:29:53.113Z,96130.16
2023-03-08T23:32:54.611Z,96134.22
2023-03-08T23:35:56.214Z,96118.81
2023-03-08T23:38:58.007Z,96120.78
2023-03-08T23:41:59.922Z,96126.88
2023-03-08T23:45:01.406Z,96134.94
2023-03-08T23:48:03.479Z,96154.75
2023-03-08T23:51:05.502Z,96173.22
2023-03-08T23:54:07.070Z,96211.34
2023-03-08T23:57:08.611Z,96184.28
